Meiji Maru — JM6300 — position and weather

sailwx.info

Track history (hours):
 
Tides and Currents Weather Stations Pressure Air Temp Water Temp Dewpoint Dewpoint Depression Visibility Wind Speed Wind Dir Waves Ship Positions

Meiji Maru

Last reported at 2018-Apr-03 07:38 UTC. Time now 2018-Jun-25 09:36 UTC.
Position N 34°24' E 139°24'.
Warning: this ship's position is months out of date.

Length 46 m.

Type: Tug. MMSI: 431694000.

Date/timePositionNaut miles runAvg speedWind from/ knotsBaromVisibWave heightAir tempDewpointWater temp
2018-Apr-03 07:38N 34°24' E 139°24'14 7.8
2018-Apr-03 05:52N 34°38' E 139°29'13 7.6
2018-Apr-03 04:06N 34°50' E 139°35'2 6.7
2018-Apr-03 03:49N 34°52' E 139°36'2 6.9
2018-Apr-03 03:30N 34°54' E 139°37'6 7.5
2018-Apr-03 02:45N 34°59' E 139°40'2 7.9
2018-Apr-03 02:30N 35°01' E 139°41'4 7.6
2018-Apr-03 02:00N 35°04' E 139°43'4 7.7
2018-Apr-03 01:30N 35°08' E 139°45'4 7.7
2018-Apr-03 01:00N 35°11' E 139°46'4 7.1
2018-Apr-03 00:30N 35°15' E 139°46'4 7.4
2018-Apr-03 00:00N 35°18' E 139°44'2 3.3
2018-Apr-02 23:31N 35°18' E 139°42'1 2.5
2018-Apr-02 23:00N 35°17' E 139°41'0 0.4
2018-Apr-02 22:30N 35°16' E 139°41'0 0.0
2018-Apr-02 21:59N 35°16' E 139°41'0 0.0
2018-Apr-02 21:31N 35°16' E 139°41'0 0.0
2018-Apr-02 21:00N 35°16' E 139°41'0 0.0
2018-Apr-02 20:28N 35°16' E 139°41'0 0.0
2018-Apr-02 19:58N 35°16' E 139°41'0 0.0
2018-Apr-02 19:28N 35°16' E 139°41'0 0.0
2018-Apr-02 18:58N 35°16' E 139°41'0 0.0
2018-Apr-02 18:22N 35°16' E 139°41'0 0.0
2018-Apr-02 17:58N 35°16' E 139°41'0 0.0
2018-Apr-02 17:28N 35°16' E 139°41'0 0.0
2018-Apr-02 16:58N 35°16' E 139°41'0 0.0
2018-Apr-02 16:28N 35°16' E 139°41'0 0.0
2018-Apr-02 15:58N 35°16' E 139°41'0 0.0
2018-Apr-02 15:25N 35°16' E 139°41'0 0.0
2018-Apr-02 14:52N 35°16' E 139°41'0 0.0
2018-Apr-02 14:28N 35°16' E 139°41'0 0.0
2018-Apr-02 13:58N 35°16' E 139°41'0 0.0
2018-Apr-02 13:28N 35°16' E 139°41'0 0.0
2018-Apr-02 12:58N 35°16' E 139°41'0 0.0
2018-Apr-02 12:28N 35°16' E 139°41'0 0.0
2018-Apr-02 11:58N 35°16' E 139°41'0 0.0
2018-Apr-02 11:13N 35°16' E 139°41'0 0.0
2018-Apr-02 10:52N 35°16' E 139°41'0 0.0
2018-Apr-02 10:25N 35°16' E 139°41'0 0.0
2018-Apr-02 09:49N 35°16' E 139°41'0 0.0
2018-Apr-02 09:28N 35°16' E 139°41'0 0.0
2018-Apr-02 08:58N 35°16' E 139°41'0 0.0
2018-Apr-02 08:28N 35°16' E 139°41'0 0.0
2018-Apr-02 07:55N 35°16' E 139°41'0 0.0
2018-Apr-02 07:25N 35°16' E 139°41'0 0.0
2018-Apr-02 06:58N 35°16' E 139°41'0 0.0
2018-Apr-02 06:28N 35°16' E 139°41'0 0.0
2018-Apr-02 05:58N 35°16' E 139°41'0 0.0
2018-Apr-02 05:28N 35°16' E 139°41'0 0.0
2018-Apr-02 04:58N 35°16' E 139°41'0 0.0
2018-Apr-02 04:22N 35°16' E 139°41'0 0.0
2018-Apr-02 03:58N 35°16' E 139°41'0 0.0
2018-Apr-02 03:25N 35°16' E 139°41'0 0.0
2018-Apr-02 02:52N 35°16' E 139°41'0 0.0
2018-Apr-02 02:25N 35°16' E 139°41'0 0.0
2018-Apr-02 01:58N 35°16' E 139°41'0 0.0
2018-Apr-02 01:22N 35°16' E 139°41'0 0.0
2018-Apr-02 00:55N 35°16' E 139°41'0 0.0
2018-Apr-02 00:28N 35°16' E 139°41'0 0.0
2018-Apr-01 23:55N 35°16' E 139°41'0 0.0
2018-Apr-01 23:25N 35°16' E 139°41'0 0.0
2018-Apr-01 22:52N 35°16' E 139°41'0 0.0
2018-Apr-01 22:28N 35°16' E 139°41'0 0.0
2018-Apr-01 21:52N 35°16' E 139°41'0 0.0
2018-Apr-01 21:28N 35°16' E 139°41'0 0.0
2018-Apr-01 20:58N 35°16' E 139°41'0 0.0
2018-Apr-01 20:25N 35°16' E 139°41'0 0.0
2018-Apr-01 19:55N 35°16' E 139°41'0 0.0
2018-Apr-01 19:28N 35°16' E 139°41'0 0.0
2018-Apr-01 18:58N 35°16' E 139°41'0 0.0
2018-Apr-01 18:28N 35°16' E 139°41'0 0.0
2018-Apr-01 17:58N 35°16' E 139°41'0 0.0
2018-Apr-01 17:25N 35°16' E 139°41'0 0.0
2018-Apr-01 16:58N 35°16' E 139°41'0 0.0
2018-Apr-01 16:25N 35°16' E 139°41'0 0.0
2018-Apr-01 15:58N 35°16' E 139°41'0 0.0
2018-Apr-01 15:30N 35°16' E 139°41'0 0.0
2018-Apr-01 14:49N 35°16' E 139°41'0 0.0
2018-Apr-01 14:28N 35°16' E 139°41'0 0.0
2018-Apr-01 14:01N 35°16' E 139°41'0 0.0
2018-Apr-01 13:30N 35°16' E 139°41'0 0.0
2018-Apr-01 12:57N 35°16' E 139°41'0 0.0
2018-Apr-01 12:27N 35°16' E 139°41'0 0.0
2018-Apr-01 11:57N 35°16' E 139°41'0 0.0
2018-Apr-01 11:30N 35°16' E 139°41'0 0.0
2018-Apr-01 10:57N 35°16' E 139°41'0 0.0
2018-Apr-01 10:27N 35°16' E 139°41'0 0.0
2018-Apr-01 10:00N 35°16' E 139°41'0 0.0
2018-Apr-01 09:18N 35°16' E 139°41'0 0.0
2018-Apr-01 09:00N 35°16' E 139°41'0 0.0
2018-Apr-01 08:18N 35°16' E 139°41'0 0.0
2018-Apr-01 07:51N 35°16' E 139°41'0 0.0
2018-Apr-01 07:30N 35°16' E 139°41'0 0.0
2018-Apr-01 07:00N 35°16' E 139°41'0 0.0
2018-Apr-01 06:30N 35°16' E 139°41'0 0.0
2018-Apr-01 05:57N 35°16' E 139°41'0 0.0
2018-Apr-01 05:30N 35°16' E 139°41'0 0.0
2018-Apr-01 05:00N 35°16' E 139°41'0 0.0
2018-Apr-01 04:27N 35°16' E 139°41'0 0.0
2018-Apr-01 04:00N 35°16' E 139°41'0 0.0
2018-Apr-01 03:24N 35°16' E 139°41'0 0.0
2018-Apr-01 02:57N 35°16' E 139°41'0 0.0
2018-Apr-01 02:30N 35°16' E 139°41'0 0.0
2018-Apr-01 02:00N 35°16' E 139°41'0 0.0
2018-Apr-01 01:30N 35°16' E 139°41'0 0.0
2018-Apr-01 00:51N 35°16' E 139°41'0 0.0
2018-Apr-01 00:27N 35°16' E 139°41'0 0.0
2018-Apr-01 00:00N 35°16' E 139°41'0 0.0
2018-Mar-31 23:06N 35°16' E 139°41'0 0.0
2018-Mar-31 23:00N 35°16' E 139°41'0 0.0
2018-Mar-31 22:27N 35°16' E 139°41'0 0.0
2018-Mar-31 22:00N 35°16' E 139°41'0 0.0
2018-Mar-31 21:30N 35°16' E 139°41'0 0.0
2018-Mar-31 21:00N 35°16' E 139°41'0 0.0
2018-Mar-31 20:30N 35°16' E 139°41'0 0.0
2018-Mar-31 19:57N 35°16' E 139°41'0 0.0
2018-Mar-31 19:27N 35°16' E 139°41'0 0.0
2018-Mar-31 19:00N 35°16' E 139°41'0 0.0
2018-Mar-31 18:27N 35°16' E 139°41'0 0.0
2018-Mar-31 18:00N 35°16' E 139°41'0 0.0
2018-Mar-31 17:21N 35°16' E 139°41'0 0.0
2018-Mar-31 17:00N 35°16' E 139°41'0 0.0
2018-Mar-31 16:30N 35°16' E 139°41'0 0.0
2018-Mar-31 16:00N 35°16' E 139°41'0 0.0
2018-Mar-31 15:24N 35°16' E 139°41'0 0.0
2018-Mar-31 14:54N 35°16' E 139°41'0 0.0
2018-Mar-31 14:30N 35°16' E 139°41'0 0.0
2018-Mar-31 14:00N 35°16' E 139°41'0 0.0
2018-Mar-31 13:27N 35°16' E 139°41'0 0.0
2018-Mar-31 13:00N 35°16' E 139°41'0 0.0
2018-Mar-31 12:30N 35°16' E 139°41'0 0.0
2018-Mar-31 11:57N 35°16' E 139°41'0 0.0
2018-Mar-31 11:27N 35°16' E 139°41'0 0.0
2018-Mar-31 10:36N 35°16' E 139°41'0 0.0
2018-Mar-31 10:30N 35°16' E 139°41'0 0.0
2018-Mar-31 10:00N 35°16' E 139°41'0 0.0
2018-Mar-31 09:30N 35°16' E 139°41'0 0.0
2018-Mar-31 09:00N 35°16' E 139°41'0 0.0
2018-Mar-31 08:30N 35°16' E 139°41'0 0.0
2018-Mar-31 07:57N 35°16' E 139°41'0 0.0
2018-Mar-31 07:30N 35°16' E 139°41'0 0.0
2018-Mar-31 06:57N 35°16' E 139°41'0 0.0
2018-Mar-31 06:24N 35°16' E 139°41'0 0.0
2018-Mar-31 05:54N 35°16' E 139°41'0 0.0
2018-Mar-31 05:30N 35°16' E 139°41'0 0.0
2018-Mar-31 04:57N 35°16' E 139°41'0 0.0
2018-Mar-31 04:24N 35°16' E 139°41'0 0.0
2018-Mar-31 04:00N 35°16' E 139°41'0 0.0
2018-Mar-31 03:30N 35°16' E 139°41'0 0.0
2018-Mar-31 03:00N 35°16' E 139°41'0 0.0
2018-Mar-31 02:23N 35°16' E 139°41'0 0.0
2018-Mar-31 01:59N 35°16' E 139°41'0 0.0
2018-Mar-31 01:23N 35°16' E 139°41'0 0.0
2018-Mar-31 00:59N 35°16' E 139°41'0 0.0
2018-Mar-31 00:29N 35°16' E 139°41'0 0.0
2018-Mar-30 23:59N 35°16' E 139°41'0 0.0
2018-Mar-30 23:26N 35°16' E 139°41'0 0.0
2018-Mar-30 22:59N 35°16' E 139°41'0 0.0
2018-Mar-30 22:26N 35°16' E 139°41'0 0.0
2018-Mar-30 21:53N 35°16' E 139°41'0 0.0
2018-Mar-30 21:29N 35°16' E 139°41'0 0.0
2018-Mar-30 20:59N 35°16' E 139°41'0 0.0
2018-Mar-30 20:26N 35°16' E 139°41'0 0.0
2018-Mar-30 19:59N 35°16' E 139°41'0 0.0
2018-Mar-30 19:29N 35°16' E 139°41'0 0.0
2018-Mar-30 18:59N 35°16' E 139°41'0 0.0
2018-Mar-30 18:26N 35°16' E 139°41'0 0.0
2018-Mar-30 17:59N 35°16' E 139°41'0 0.0
2018-Mar-30 17:17N 35°16' E 139°41'0 0.0
2018-Mar-30 16:50N 35°16' E 139°41'0 0.0
2018-Mar-30 16:26N 35°16' E 139°41'0 0.0
2018-Mar-30 15:59N 35°16' E 139°41'0 0.0
2018-Mar-30 15:29N 35°16' E 139°41'0 0.0
2018-Mar-30 14:59N 35°16' E 139°41'0 0.0
2018-Mar-30 14:29N 35°16' E 139°41'0 0.0
2018-Mar-30 13:56N 35°16' E 139°41'0 0.0
2018-Mar-30 13:29N 35°16' E 139°41'0 0.0
2018-Mar-30 12:56N 35°16' E 139°41'0 0.0
2018-Mar-30 12:29N 35°16' E 139°41'0 0.0
2018-Mar-30 11:56N 35°16' E 139°41'0 0.0
2018-Mar-30 11:29N 35°16' E 139°41'0 0.0
2018-Mar-30 10:47N 35°16' E 139°41'0 0.0
2018-Mar-30 10:29N 35°16' E 139°41'0 0.0
2018-Mar-30 09:59N 35°16' E 139°41'0 0.0
2018-Mar-30 09:29N 35°16' E 139°41'0 0.0
2018-Mar-30 08:59N 35°16' E 139°41'0 0.0
2018-Mar-30 08:17N 35°16' E 139°41'0 0.0
2018-Mar-30 07:59N 35°16' E 139°41'0 0.0
2018-Mar-30 07:29N 35°16' E 139°41'0 0.0
2018-Mar-30 06:59N 35°16' E 139°41'0 0.0
2018-Mar-30 06:29N 35°16' E 139°41'0 0.0
2018-Mar-30 05:56N 35°16' E 139°41'0 0.0
2018-Mar-30 05:26N 35°16' E 139°41'0 0.0
2018-Mar-30 04:59N 35°16' E 139°41'0 0.0
2018-Mar-30 04:29N 35°16' E 139°41'0 0.0
2018-Mar-30 04:01N 35°16' E 139°41'0 0.0
2018-Mar-30 03:30N 35°16' E 139°41'1 2.3
2018-Mar-30 03:00N 35°17' E 139°42'3 5.9
2018-Mar-30 02:30N 35°20' E 139°42'3 6.2
2018-Mar-30 02:00N 35°23' E 139°42'3 6.8
2018-Mar-30 01:30N 35°26' E 139°44'4 7.3
2018-Mar-30 01:00N 35°28' E 139°48'4 7.3
2018-Mar-30 00:30N 35°30' E 139°52'3 6.1
2018-Mar-30 00:00N 35°29' E 139°55'2 4.6
2018-Mar-29 23:30N 35°28' E 139°58'1 2.7
2018-Mar-29 23:00N 35°27' E 139°57'0 0.0
2018-Mar-29 22:30N 35°27' E 139°57'0 0.0
2018-Mar-29 21:58N 35°27' E 139°57'0 0.0
2018-Mar-29 21:30N 35°27' E 139°57'0 0.0
2018-Mar-29 21:00N 35°27' E 139°57'0 0.0
2018-Mar-29 20:30N 35°27' E 139°57'0 0.0
2018-Mar-29 20:00N 35°27' E 139°57'0 0.0
2018-Mar-29 19:30N 35°27' E 139°57'0 0.0
2018-Mar-29 19:01N 35°27' E 139°57'0 0.0
2018-Mar-29 18:30N 35°27' E 139°57'0 0.0
2018-Mar-29 18:00N 35°27' E 139°57'0 0.0
2018-Mar-29 17:30N 35°27' E 139°57'0 0.0
2018-Mar-29 17:00N 35°27' E 139°57'0 0.0
2018-Mar-29 16:30N 35°27' E 139°57'0 0.0
2018-Mar-29 16:00N 35°27' E 139°57'0 0.0
2018-Mar-29 15:30N 35°27' E 139°57'0 0.0
2018-Mar-29 15:00N 35°27' E 139°57'0 0.0
2018-Mar-29 14:30N 35°27' E 139°57'0 0.0
2018-Mar-29 14:00N 35°27' E 139°57'0 0.0
2018-Mar-29 13:30N 35°27' E 139°57'0 0.0
2018-Mar-29 13:00N 35°27' E 139°57'0 0.0
2018-Mar-29 12:30N 35°27' E 139°57'0 0.0
2018-Mar-29 12:00N 35°27' E 139°57'0 0.0
2018-Mar-29 11:31N 35°27' E 139°57'0 0.0
2018-Mar-29 11:00N 35°27' E 139°57'0 0.0
2018-Mar-29 10:30N 35°27' E 139°57'0 0.0
2018-Mar-29 10:00N 35°27' E 139°57'0 0.0
2018-Mar-29 09:30N 35°27' E 139°57'0 0.0
2018-Mar-29 09:01N 35°27' E 139°57'0 0.0
2018-Mar-29 08:30N 35°27' E 139°57'0 0.0
2018-Mar-29 08:00N 35°27' E 139°57'0 0.0
2018-Mar-29 07:30N 35°27' E 139°57'0 0.0
2018-Mar-29 07:00N 35°27' E 139°57'0 0.0
2018-Mar-29 06:30N 35°27' E 139°57'0 0.0
2018-Mar-29 05:55N 35°27' E 139°57'0 0.0
2018-Mar-29 05:25N 35°27' E 139°57'0 0.0
2018-Mar-29 04:55N 35°27' E 139°57'0 0.0
2018-Mar-29 04:28N 35°27' E 139°57'0 0.0
2018-Mar-29 03:58N 35°27' E 139°57'0 0.0
2018-Mar-29 03:28N 35°27' E 139°57'0 0.0
2018-Mar-29 02:58N 35°27' E 139°57'0 0.0
2018-Mar-29 02:28N 35°27' E 139°57'0 0.0
2018-Mar-29 01:55N 35°27' E 139°57'0 0.0
2018-Mar-29 01:25N 35°27' E 139°57'0 0.0
2018-Mar-29 00:55N 35°27' E 139°57'0 0.0
2018-Mar-29 00:25N 35°27' E 139°57'0 0.0
2018-Mar-28 23:40N 35°27' E 139°57'0 0.0
2018-Mar-28 23:28N 35°27' E 139°57'0 0.0
2018-Mar-28 22:55N 35°27' E 139°57'0 0.0
2018-Mar-28 22:25N 35°27' E 139°57'0 0.0
2018-Mar-28 21:46N 35°27' E 139°57'0 0.0
2018-Mar-28 21:28N 35°27' E 139°57'0 0.0
2018-Mar-28 20:31N 35°27' E 139°57'0 0.1
2018-Mar-28 20:28N 35°27' E 139°57'0 0.0
2018-Mar-28 19:55N 35°27' E 139°57'0 0.0
2018-Mar-28 19:25N 35°27' E 139°57'0 0.0
2018-Mar-28 18:49N 35°27' E 139°57'0 0.0
2018-Mar-28 16:55N 35°27' E 139°57'0 0.0
2018-Mar-28 16:19N 35°27' E 139°57'0 0.0
2018-Mar-28 15:58N 35°27' E 139°57'0 0.0
2018-Mar-28 15:25N 35°27' E 139°57'0 0.0
2018-Mar-28 14:52N 35°27' E 139°57'0 0.0
2018-Mar-28 14:25N 35°27' E 139°57'0 0.0
2018-Mar-28 13:55N 35°27' E 139°57'0 0.0
2018-Mar-28 13:28N 35°27' E 139°57'0 0.0
2018-Mar-28 12:49N 35°27' E 139°57'0 0.0
2018-Mar-28 12:28N 35°27' E 139°57'0 0.0
2018-Mar-28 11:58N 35°27' E 139°57'0 0.0
2018-Mar-28 11:25N 35°27' E 139°57'0 0.0
2018-Mar-28 10:55N 35°27' E 139°57'0 0.0
2018-Mar-28 10:25N 35°27' E 139°57'0 0.0
2018-Mar-28 09:52N 35°27' E 139°57'0 0.0
2018-Mar-28 09:10N 35°27' E 139°57'0 0.0
2018-Mar-28 08:55N 35°27' E 139°57'0 0.0
2018-Mar-28 08:28N 35°27' E 139°57'0 0.0
2018-Mar-28 07:58N 35°27' E 139°57'0 0.0
2018-Mar-28 07:22N 35°27' E 139°57'0 0.0
2018-Mar-28 06:55N 35°27' E 139°57'0 0.0
2018-Mar-28 06:25N 35°27' E 139°57'0 0.0
2018-Mar-28 05:49N 35°27' E 139°57'0 0.0
2018-Mar-28 05:28N 35°27' E 139°57'0 0.0
2018-Mar-28 04:52N 35°27' E 139°57'0 0.0
2018-Mar-28 04:19N 35°27' E 139°57'0 0.0
2018-Mar-28 03:55N 35°27' E 139°57'0 0.0
2018-Mar-28 03:28N 35°27' E 139°57'0 0.0
2018-Mar-28 02:58N 35°27' E 139°57'0 0.0
2018-Mar-28 02:30N 35°27' E 139°57'0 0.0
2018-Mar-28 02:00N 35°27' E 139°57'0 0.0
2018-Mar-28 01:30N 35°27' E 139°57'0 0.2
2018-Mar-28 01:00N 35°27' E 139°57'3 5.7
2018-Mar-28 00:31N 35°29' E 139°55'510.3
2018-Mar-28 00:00N 35°27' E 139°49'510.6
2018-Mar-27 23:30N 35°22' E 139°45'5 9.9
2018-Mar-27 23:00N 35°17' E 139°45'510.2
2018-Mar-27 22:29N 35°12' E 139°47'611.5
2018-Mar-27 22:00N 35°07' E 139°46'611.2
2018-Mar-27 21:30N 35°02' E 139°44'611.3
2018-Mar-27 21:00N 34°58' E 139°39'1213.1
2018-Mar-27 20:05N 34°52' E 139°26'913.0
2018-Mar-27 19:21N 34°46' E 139°17'812.1
2018-Mar-27 18:44N 34°41' E 139°09'412.5
2018-Mar-27 18:26N 34°39' E 139°06'512.0
2018-Mar-27 18:00N 34°36' E 139°01'611.6
2018-Mar-27 17:30N 34°34' E 138°55'1911.8
2018-Mar-27 15:52N 34°33' E 138°31'611.9
2018-Mar-27 15:23N 34°33' E 138°24'511.7
2018-Mar-27 14:56N 34°33' E 138°18'  
Track history (hours):
 
Tides and Currents Weather Stations Pressure Air Temp Water Temp Dewpoint Dewpoint Depression Visibility Wind Speed Wind Dir Waves Ship Positions

Meiji Maru

Last reported at 2018-Apr-03 07:38 UTC. Time now 2018-Jun-25 09:36 UTC.
Position N 34°24' E 139°24'.
Warning: this ship's position is months out of date.

Length 46 m.

Type: Tug. MMSI: 431694000.

Date/timePositionNaut miles runAvg speedWind from/ knotsBaromVisibWave heightAir tempDewpointWater temp
2018-Apr-03 07:38N 34°24' E 139°24'14 7.8
2018-Apr-03 05:52N 34°38' E 139°29'13 7.6
2018-Apr-03 04:06N 34°50' E 139°35'2 6.7
2018-Apr-03 03:49N 34°52' E 139°36'2 6.9
2018-Apr-03 03:30N 34°54' E 139°37'6 7.5
2018-Apr-03 02:45N 34°59' E 139°40'2 7.9
2018-Apr-03 02:30N 35°01' E 139°41'4 7.6
2018-Apr-03 02:00N 35°04' E 139°43'4 7.7
2018-Apr-03 01:30N 35°08' E 139°45'4 7.7
2018-Apr-03 01:00N 35°11' E 139°46'4 7.1
2018-Apr-03 00:30N 35°15' E 139°46'4 7.4
2018-Apr-03 00:00N 35°18' E 139°44'2 3.3
2018-Apr-02 23:31N 35°18' E 139°42'1 2.5
2018-Apr-02 23:00N 35°17' E 139°41'0 0.4
2018-Apr-02 22:30N 35°16' E 139°41'0 0.0
2018-Apr-02 21:59N 35°16' E 139°41'0 0.0
2018-Apr-02 21:31N 35°16' E 139°41'0 0.0
2018-Apr-02 21:00N 35°16' E 139°41'0 0.0
2018-Apr-02 20:28N 35°16' E 139°41'0 0.0
2018-Apr-02 19:58N 35°16' E 139°41'0 0.0
2018-Apr-02 19:28N 35°16' E 139°41'0 0.0
2018-Apr-02 18:58N 35°16' E 139°41'0 0.0
2018-Apr-02 18:22N 35°16' E 139°41'0 0.0
2018-Apr-02 17:58N 35°16' E 139°41'0 0.0
2018-Apr-02 17:28N 35°16' E 139°41'0 0.0
2018-Apr-02 16:58N 35°16' E 139°41'0 0.0
2018-Apr-02 16:28N 35°16' E 139°41'0 0.0
2018-Apr-02 15:58N 35°16' E 139°41'0 0.0
2018-Apr-02 15:25N 35°16' E 139°41'0 0.0
2018-Apr-02 14:52N 35°16' E 139°41'0 0.0
2018-Apr-02 14:28N 35°16' E 139°41'0 0.0
2018-Apr-02 13:58N 35°16' E 139°41'0 0.0
2018-Apr-02 13:28N 35°16' E 139°41'0 0.0
2018-Apr-02 12:58N 35°16' E 139°41'0 0.0
2018-Apr-02 12:28N 35°16' E 139°41'0 0.0
2018-Apr-02 11:58N 35°16' E 139°41'0 0.0
2018-Apr-02 11:13N 35°16' E 139°41'0 0.0
2018-Apr-02 10:52N 35°16' E 139°41'0 0.0
2018-Apr-02 10:25N 35°16' E 139°41'0 0.0
2018-Apr-02 09:49N 35°16' E 139°41'0 0.0
2018-Apr-02 09:28N 35°16' E 139°41'0 0.0
2018-Apr-02 08:58N 35°16' E 139°41'0 0.0
2018-Apr-02 08:28N 35°16' E 139°41'0 0.0
2018-Apr-02 07:55N 35°16' E 139°41'0 0.0
2018-Apr-02 07:25N 35°16' E 139°41'0 0.0
2018-Apr-02 06:58N 35°16' E 139°41'0 0.0
2018-Apr-02 06:28N 35°16' E 139°41'0 0.0
2018-Apr-02 05:58N 35°16' E 139°41'0 0.0
2018-Apr-02 05:28N 35°16' E 139°41'0 0.0
2018-Apr-02 04:58N 35°16' E 139°41'0 0.0
2018-Apr-02 04:22N 35°16' E 139°41'0 0.0
2018-Apr-02 03:58N 35°16' E 139°41'0 0.0
2018-Apr-02 03:25N 35°16' E 139°41'0 0.0
2018-Apr-02 02:52N 35°16' E 139°41'0 0.0
2018-Apr-02 02:25N 35°16' E 139°41'0 0.0
2018-Apr-02 01:58N 35°16' E 139°41'0 0.0
2018-Apr-02 01:22N 35°16' E 139°41'0 0.0
2018-Apr-02 00:55N 35°16' E 139°41'0 0.0
2018-Apr-02 00:28N 35°16' E 139°41'0 0.0
2018-Apr-01 23:55N 35°16' E 139°41'0 0.0
2018-Apr-01 23:25N 35°16' E 139°41'0 0.0
2018-Apr-01 22:52N 35°16' E 139°41'0 0.0
2018-Apr-01 22:28N 35°16' E 139°41'0 0.0
2018-Apr-01 21:52N 35°16' E 139°41'0 0.0
2018-Apr-01 21:28N 35°16' E 139°41'0 0.0
2018-Apr-01 20:58N 35°16' E 139°41'0 0.0
2018-Apr-01 20:25N 35°16' E 139°41'0 0.0
2018-Apr-01 19:55N 35°16' E 139°41'0 0.0
2018-Apr-01 19:28N 35°16' E 139°41'0 0.0
2018-Apr-01 18:58N 35°16' E 139°41'0 0.0
2018-Apr-01 18:28N 35°16' E 139°41'0 0.0
2018-Apr-01 17:58N 35°16' E 139°41'0 0.0
2018-Apr-01 17:25N 35°16' E 139°41'0 0.0
2018-Apr-01 16:58N 35°16' E 139°41'0 0.0
2018-Apr-01 16:25N 35°16' E 139°41'0 0.0
2018-Apr-01 15:58N 35°16' E 139°41'0 0.0
2018-Apr-01 15:30N 35°16' E 139°41'0 0.0
2018-Apr-01 14:49N 35°16' E 139°41'0 0.0
2018-Apr-01 14:28N 35°16' E 139°41'0 0.0
2018-Apr-01 14:01N 35°16' E 139°41'0 0.0
2018-Apr-01 13:30N 35°16' E 139°41'0 0.0
2018-Apr-01 12:57N 35°16' E 139°41'0 0.0
2018-Apr-01 12:27N 35°16' E 139°41'0 0.0
2018-Apr-01 11:57N 35°16' E 139°41'0 0.0
2018-Apr-01 11:30N 35°16' E 139°41'0 0.0
2018-Apr-01 10:57N 35°16' E 139°41'0 0.0
2018-Apr-01 10:27N 35°16' E 139°41'0 0.0
2018-Apr-01 10:00N 35°16' E 139°41'0 0.0
2018-Apr-01 09:18N 35°16' E 139°41'0 0.0
2018-Apr-01 09:00N 35°16' E 139°41'0 0.0
2018-Apr-01 08:18N 35°16' E 139°41'0 0.0
2018-Apr-01 07:51N 35°16' E 139°41'0 0.0
2018-Apr-01 07:30N 35°16' E 139°41'0 0.0
2018-Apr-01 07:00N 35°16' E 139°41'0 0.0
2018-Apr-01 06:30N 35°16' E 139°41'0 0.0
2018-Apr-01 05:57N 35°16' E 139°41'0 0.0
2018-Apr-01 05:30N 35°16' E 139°41'0 0.0
2018-Apr-01 05:00N 35°16' E 139°41'0 0.0
2018-Apr-01 04:27N 35°16' E 139°41'0 0.0
2018-Apr-01 04:00N 35°16' E 139°41'0 0.0
2018-Apr-01 03:24N 35°16' E 139°41'0 0.0
2018-Apr-01 02:57N 35°16' E 139°41'0 0.0
2018-Apr-01 02:30N 35°16' E 139°41'0 0.0
2018-Apr-01 02:00N 35°16' E 139°41'0 0.0
2018-Apr-01 01:30N 35°16' E 139°41'0 0.0
2018-Apr-01 00:51N 35°16' E 139°41'0 0.0
2018-Apr-01 00:27N 35°16' E 139°41'0 0.0
2018-Apr-01 00:00N 35°16' E 139°41'0 0.0
2018-Mar-31 23:06N 35°16' E 139°41'0 0.0
2018-Mar-31 23:00N 35°16' E 139°41'0 0.0
2018-Mar-31 22:27N 35°16' E 139°41'0 0.0
2018-Mar-31 22:00N 35°16' E 139°41'0 0.0
2018-Mar-31 21:30N 35°16' E 139°41'0 0.0
2018-Mar-31 21:00N 35°16' E 139°41'0 0.0
2018-Mar-31 20:30N 35°16' E 139°41'0 0.0
2018-Mar-31 19:57N 35°16' E 139°41'0 0.0
2018-Mar-31 19:27N 35°16' E 139°41'0 0.0
2018-Mar-31 19:00N 35°16' E 139°41'0 0.0
2018-Mar-31 18:27N 35°16' E 139°41'0 0.0
2018-Mar-31 18:00N 35°16' E 139°41'0 0.0
2018-Mar-31 17:21N 35°16' E 139°41'0 0.0
2018-Mar-31 17:00N 35°16' E 139°41'0 0.0
2018-Mar-31 16:30N 35°16' E 139°41'0 0.0
2018-Mar-31 16:00N 35°16' E 139°41'0 0.0
2018-Mar-31 15:24N 35°16' E 139°41'0 0.0
2018-Mar-31 14:54N 35°16' E 139°41'0 0.0
2018-Mar-31 14:30N 35°16' E 139°41'0 0.0
2018-Mar-31 14:00N 35°16' E 139°41'0 0.0
2018-Mar-31 13:27N 35°16' E 139°41'0 0.0
2018-Mar-31 13:00N 35°16' E 139°41'0 0.0
2018-Mar-31 12:30N 35°16' E 139°41'0 0.0
2018-Mar-31 11:57N 35°16' E 139°41'0 0.0
2018-Mar-31 11:27N 35°16' E 139°41'0 0.0
2018-Mar-31 10:36N 35°16' E 139°41'0 0.0
2018-Mar-31 10:30N 35°16' E 139°41'0 0.0
2018-Mar-31 10:00N 35°16' E 139°41'0 0.0
2018-Mar-31 09:30N 35°16' E 139°41'0 0.0
2018-Mar-31 09:00N 35°16' E 139°41'0 0.0
2018-Mar-31 08:30N 35°16' E 139°41'0 0.0
2018-Mar-31 07:57N 35°16' E 139°41'0 0.0
2018-Mar-31 07:30N 35°16' E 139°41'0 0.0
2018-Mar-31 06:57N 35°16' E 139°41'0 0.0
2018-Mar-31 06:24N 35°16' E 139°41'0 0.0
2018-Mar-31 05:54N 35°16' E 139°41'0 0.0
2018-Mar-31 05:30N 35°16' E 139°41'0 0.0
2018-Mar-31 04:57N 35°16' E 139°41'0 0.0
2018-Mar-31 04:24N 35°16' E 139°41'0 0.0
2018-Mar-31 04:00N 35°16' E 139°41'0 0.0
2018-Mar-31 03:30N 35°16' E 139°41'0 0.0
2018-Mar-31 03:00N 35°16' E 139°41'0 0.0
2018-Mar-31 02:23N 35°16' E 139°41'0 0.0
2018-Mar-31 01:59N 35°16' E 139°41'0 0.0
2018-Mar-31 01:23N 35°16' E 139°41'0 0.0
2018-Mar-31 00:59N 35°16' E 139°41'0 0.0
2018-Mar-31 00:29N 35°16' E 139°41'0 0.0
2018-Mar-30 23:59N 35°16' E 139°41'0 0.0
2018-Mar-30 23:26N 35°16' E 139°41'0 0.0
2018-Mar-30 22:59N 35°16' E 139°41'0 0.0
2018-Mar-30 22:26N 35°16' E 139°41'0 0.0
2018-Mar-30 21:53N 35°16' E 139°41'0 0.0
2018-Mar-30 21:29N 35°16' E 139°41'0 0.0
2018-Mar-30 20:59N 35°16' E 139°41'0 0.0
2018-Mar-30 20:26N 35°16' E 139°41'0 0.0
2018-Mar-30 19:59N 35°16' E 139°41'0 0.0
2018-Mar-30 19:29N 35°16' E 139°41'0 0.0
2018-Mar-30 18:59N 35°16' E 139°41'0 0.0
2018-Mar-30 18:26N 35°16' E 139°41'0 0.0
2018-Mar-30 17:59N 35°16' E 139°41'0 0.0
2018-Mar-30 17:17N 35°16' E 139°41'0 0.0
2018-Mar-30 16:50N 35°16' E 139°41'0 0.0
2018-Mar-30 16:26N 35°16' E 139°41'0 0.0
2018-Mar-30 15:59N 35°16' E 139°41'0 0.0
2018-Mar-30 15:29N 35°16' E 139°41'0 0.0
2018-Mar-30 14:59N 35°16' E 139°41'0 0.0
2018-Mar-30 14:29N 35°16' E 139°41'0 0.0
2018-Mar-30 13:56N 35°16' E 139°41'0 0.0
2018-Mar-30 13:29N 35°16' E 139°41'0 0.0
2018-Mar-30 12:56N 35°16' E 139°41'0 0.0
2018-Mar-30 12:29N 35°16' E 139°41'0 0.0
2018-Mar-30 11:56N 35°16' E 139°41'0 0.0
2018-Mar-30 11:29N 35°16' E 139°41'0 0.0
2018-Mar-30 10:47N 35°16' E 139°41'0 0.0
2018-Mar-30 10:29N 35°16' E 139°41'0 0.0
2018-Mar-30 09:59N 35°16' E 139°41'0 0.0
2018-Mar-30 09:29N 35°16' E 139°41'0 0.0
2018-Mar-30 08:59N 35°16' E 139°41'0 0.0
2018-Mar-30 08:17N 35°16' E 139°41'0 0.0
2018-Mar-30 07:59N 35°16' E 139°41'0 0.0
2018-Mar-30 07:29N 35°16' E 139°41'0 0.0
2018-Mar-30 06:59N 35°16' E 139°41'0 0.0
2018-Mar-30 06:29N 35°16' E 139°41'0 0.0
2018-Mar-30 05:56N 35°16' E 139°41'0 0.0
2018-Mar-30 05:26N 35°16' E 139°41'0 0.0
2018-Mar-30 04:59N 35°16' E 139°41'0 0.0
2018-Mar-30 04:29N 35°16' E 139°41'0 0.0
2018-Mar-30 04:01N 35°16' E 139°41'0 0.0
2018-Mar-30 03:30N 35°16' E 139°41'1 2.3
2018-Mar-30 03:00N 35°17' E 139°42'3 5.9
2018-Mar-30 02:30N 35°20' E 139°42'3 6.2
2018-Mar-30 02:00N 35°23' E 139°42'3 6.8
2018-Mar-30 01:30N 35°26' E 139°44'4 7.3
2018-Mar-30 01:00N 35°28' E 139°48'4 7.3
2018-Mar-30 00:30N 35°30' E 139°52'3 6.1
2018-Mar-30 00:00N 35°29' E 139°55'2 4.6
2018-Mar-29 23:30N 35°28' E 139°58'1 2.7
2018-Mar-29 23:00N 35°27' E 139°57'0 0.0
2018-Mar-29 22:30N 35°27' E 139°57'0 0.0
2018-Mar-29 21:58N 35°27' E 139°57'0 0.0
2018-Mar-29 21:30N 35°27' E 139°57'0 0.0
2018-Mar-29 21:00N 35°27' E 139°57'0 0.0
2018-Mar-29 20:30N 35°27' E 139°57'0 0.0
2018-Mar-29 20:00N 35°27' E 139°57'0 0.0
2018-Mar-29 19:30N 35°27' E 139°57'0 0.0
2018-Mar-29 19:01N 35°27' E 139°57'0 0.0
2018-Mar-29 18:30N 35°27' E 139°57'0 0.0
2018-Mar-29 18:00N 35°27' E 139°57'0 0.0
2018-Mar-29 17:30N 35°27' E 139°57'0 0.0
2018-Mar-29 17:00N 35°27' E 139°57'0 0.0
2018-Mar-29 16:30N 35°27' E 139°57'0 0.0
2018-Mar-29 16:00N 35°27' E 139°57'0 0.0
2018-Mar-29 15:30N 35°27' E 139°57'0 0.0
2018-Mar-29 15:00N 35°27' E 139°57'0 0.0
2018-Mar-29 14:30N 35°27' E 139°57'0 0.0
2018-Mar-29 14:00N 35°27' E 139°57'0 0.0
2018-Mar-29 13:30N 35°27' E 139°57'0 0.0
2018-Mar-29 13:00N 35°27' E 139°57'0 0.0
2018-Mar-29 12:30N 35°27' E 139°57'0 0.0
2018-Mar-29 12:00N 35°27' E 139°57'0 0.0
2018-Mar-29 11:31N 35°27' E 139°57'0 0.0
2018-Mar-29 11:00N 35°27' E 139°57'0 0.0
2018-Mar-29 10:30N 35°27' E 139°57'0 0.0
2018-Mar-29 10:00N 35°27' E 139°57'0 0.0
2018-Mar-29 09:30N 35°27' E 139°57'0 0.0
2018-Mar-29 09:01N 35°27' E 139°57'0 0.0
2018-Mar-29 08:30N 35°27' E 139°57'0 0.0
2018-Mar-29 08:00N 35°27' E 139°57'0 0.0
2018-Mar-29 07:30N 35°27' E 139°57'0 0.0
2018-Mar-29 07:00N 35°27' E 139°57'0 0.0
2018-Mar-29 06:30N 35°27' E 139°57'0 0.0
2018-Mar-29 05:55N 35°27' E 139°57'0 0.0
2018-Mar-29 05:25N 35°27' E 139°57'0 0.0
2018-Mar-29 04:55N 35°27' E 139°57'0 0.0
2018-Mar-29 04:28N 35°27' E 139°57'0 0.0
2018-Mar-29 03:58N 35°27' E 139°57'0 0.0
2018-Mar-29 03:28N 35°27' E 139°57'0 0.0
2018-Mar-29 02:58N 35°27' E 139°57'0 0.0
2018-Mar-29 02:28N 35°27' E 139°57'0 0.0
2018-Mar-29 01:55N 35°27' E 139°57'0 0.0
2018-Mar-29 01:25N 35°27' E 139°57'0 0.0
2018-Mar-29 00:55N 35°27' E 139°57'0 0.0
2018-Mar-29 00:25N 35°27' E 139°57'0 0.0
2018-Mar-28 23:40N 35°27' E 139°57'0 0.0
2018-Mar-28 23:28N 35°27' E 139°57'0 0.0
2018-Mar-28 22:55N 35°27' E 139°57'0 0.0
2018-Mar-28 22:25N 35°27' E 139°57'0 0.0
2018-Mar-28 21:46N 35°27' E 139°57'0 0.0
2018-Mar-28 21:28N 35°27' E 139°57'0 0.0
2018-Mar-28 20:31N 35°27' E 139°57'0 0.1
2018-Mar-28 20:28N 35°27' E 139°57'0 0.0
2018-Mar-28 19:55N 35°27' E 139°57'0 0.0
2018-Mar-28 19:25N 35°27' E 139°57'0 0.0
2018-Mar-28 18:49N 35°27' E 139°57'0 0.0
2018-Mar-28 16:55N 35°27' E 139°57'0 0.0
2018-Mar-28 16:19N 35°27' E 139°57'0 0.0
2018-Mar-28 15:58N 35°27' E 139°57'0 0.0
2018-Mar-28 15:25N 35°27' E 139°57'0 0.0
2018-Mar-28 14:52N 35°27' E 139°57'0 0.0
2018-Mar-28 14:25N 35°27' E 139°57'0 0.0
2018-Mar-28 13:55N 35°27' E 139°57'0 0.0
2018-Mar-28 13:28N 35°27' E 139°57'0 0.0
2018-Mar-28 12:49N 35°27' E 139°57'0 0.0
2018-Mar-28 12:28N 35°27' E 139°57'0 0.0
2018-Mar-28 11:58N 35°27' E 139°57'0 0.0
2018-Mar-28 11:25N 35°27' E 139°57'0 0.0
2018-Mar-28 10:55N 35°27' E 139°57'0 0.0
2018-Mar-28 10:25N 35°27' E 139°57'0 0.0
2018-Mar-28 09:52N 35°27' E 139°57'0 0.0
2018-Mar-28 09:10N 35°27' E 139°57'0 0.0
2018-Mar-28 08:55N 35°27' E 139°57'0 0.0
2018-Mar-28 08:28N 35°27' E 139°57'0 0.0
2018-Mar-28 07:58N 35°27' E 139°57'0 0.0
2018-Mar-28 07:22N 35°27' E 139°57'0 0.0
2018-Mar-28 06:55N 35°27' E 139°57'0 0.0
2018-Mar-28 06:25N 35°27' E 139°57'0 0.0
2018-Mar-28 05:49N 35°27' E 139°57'0 0.0
2018-Mar-28 05:28N 35°27' E 139°57'0 0.0
2018-Mar-28 04:52N 35°27' E 139°57'0 0.0
2018-Mar-28 04:19N 35°27' E 139°57'0 0.0
2018-Mar-28 03:55N 35°27' E 139°57'0 0.0
2018-Mar-28 03:28N 35°27' E 139°57'0 0.0
2018-Mar-28 02:58N 35°27' E 139°57'0 0.0
2018-Mar-28 02:30N 35°27' E 139°57'0 0.0
2018-Mar-28 02:00N 35°27' E 139°57'0 0.0
2018-Mar-28 01:30N 35°27' E 139°57'0 0.2
2018-Mar-28 01:00N 35°27' E 139°57'3 5.7
2018-Mar-28 00:31N 35°29' E 139°55'510.3
2018-Mar-28 00:00N 35°27' E 139°49'510.6
2018-Mar-27 23:30N 35°22' E 139°45'5 9.9
2018-Mar-27 23:00N 35°17' E 139°45'510.2
2018-Mar-27 22:29N 35°12' E 139°47'611.5
2018-Mar-27 22:00N 35°07' E 139°46'611.2
2018-Mar-27 21:30N 35°02' E 139°44'611.3
2018-Mar-27 21:00N 34°58' E 139°39'1213.1
2018-Mar-27 20:05N 34°52' E 139°26'913.0
2018-Mar-27 19:21N 34°46' E 139°17'812.1
2018-Mar-27 18:44N 34°41' E 139°09'412.5
2018-Mar-27 18:26N 34°39' E 139°06'512.0
2018-Mar-27 18:00N 34°36' E 139°01'611.6
2018-Mar-27 17:30N 34°34' E 138°55'1911.8
2018-Mar-27 15:52N 34°33' E 138°31'611.9
2018-Mar-27 15:23N 34°33' E 138°24'511.7
2018-Mar-27 14:56N 34°33' E 138°18'  

Dump ship's entire track history